• Join FlightAware (Why Join?)
  • Login
  • US Flag 
Trick or treat! (Boo!!) 
10:57AM EDT


 

Airport Tracker/Info


-or-


 

Live Flight TrackerFlight Track Log ✈ DLH917 ✈ 07-Apr-2013 ✈ EGLL / LHR - EDDF / FRA

Flight Track Log - Related Links

Times and Time Zones

All times are in EDT time to prevent confusion due to time zone crossing. See the DLH917 flight status page for this flight to view local times or setup timezone preferences in your user account.

Time Position Orientation Groundspeed Altitude Reporting Facility
EDT Latitude Longitude Course Direction KTS MPH feet Rate Location/Type
02:26PM 51.4217 0.0010 101° East  Level Estimated
02:27PM 51.4027 0.1548 101° East  Level Estimated
02:28PM 51.3836 0.3086 101° East  Level Estimated
02:29PM 51.3642 0.4622 101° East  Level Estimated
02:30PM 51.3446 0.6157 101° East  Level Estimated
02:31PM 51.3248 0.7690 102° East  Level Estimated
02:32PM 51.3048 0.9222 102° East  Level Estimated
02:33PM 51.2846 1.0753 102° East  Level Estimated
02:34PM 51.2642 1.2283 102° East  Level Estimated
02:35PM 51.2436 1.3811 102° East  Level Estimated
02:36PM 51.2228 1.5337 102° East  Level Estimated
02:37PM 51.2019 1.6863 102° East  Level Estimated
02:38PM 51.1807 1.8386 102° East  Level Estimated
02:39PM 51.1593 1.9909 103° East  Level Estimated
02:40PM 51.1377 2.1430 103° East  Level Estimated
02:41PM 51.1159 2.2950 103° East  Level Estimated
02:42PM 51.0939 2.4468 103° East  Level Estimated
02:43PM 51.0718 2.5985 103° East  Level Estimated
02:44PM 51.0494 2.7500 103° East  Level Estimated
02:45PM 51.0268 2.9014 103° East  Level Estimated
02:46PM 51.0041 3.0526 103° East  Level Estimated
02:47PM 50.9811 3.2037 104° East  Level Estimated
02:48PM 50.9580 3.3547 104° East  Level Estimated
02:49PM 50.9346 3.5055 104° East  Level Estimated
02:50PM 50.9111 3.6561 104° East  Level Estimated
02:51PM 50.8873 3.8066 104° East  Level Estimated
02:52PM 50.8634 3.9569 104° East  Level Estimated
02:53PM 50.8393 4.1071 104° East  Level Estimated
02:54PM 50.8150 4.2571 104° East  Level Estimated
02:55PM 50.7905 4.4070 104° East  Level Estimated
02:56PM 50.7658 4.5567 105° East  Level Estimated
02:57PM 50.7409 4.7062 105° East  Level Estimated
02:58PM 50.7158 4.8556 105° East  Level Estimated
02:59PM 50.6905 5.0048 105° East  Level Estimated
03:00PM 50.6651 5.1539 105° East  Level Estimated
03:01PM 50.6394 5.3028 105° East  Level Estimated
03:02PM 50.6136 5.4515 105° East  Level Estimated
03:03PM 50.5876 5.6001 105° East  Level Estimated
03:04PM 50.5613 5.7485 105° East  Level Estimated
03:05PM 50.5349 5.8968 106° East  Level Estimated
03:06PM 50.5083 6.0449 106° East  Level Estimated
03:07PM 50.4816 6.1928 106° East  Level Estimated
03:08PM 50.4546 6.3405 106° East  Level Estimated
03:09PM 50.4274 6.4881 106° East  Level Estimated
03:10PM 50.4001 6.6355 106° East  Level Estimated
03:11PM 50.3726 6.7827 106° East  Level Estimated
03:12PM 50.3449 6.9298 106° East  Level Estimated
03:13PM 50.3170 7.0767 107° East  Level Estimated
03:14PM 50.2889 7.2234 107° East  Level Estimated
03:15PM 50.2606 7.3699 107° East  Level Estimated
03:16PM 50.2322 7.5163 107° East  Level Estimated
03:17PM 50.2035 7.6625 107° East  Level Estimated
03:18PM 50.1747 7.8085 107° East  Level Estimated
03:19PM 50.1457 7.9544 107° East  Level Estimated
03:20PM 50.1165 8.1000 107° East  Level Estimated
03:21PM 50.0872 8.2455 107° East  Level Estimated
03:22PM 50.0576 8.3908 108° East  Level Estimated
03:23PM 50.0279 8.5360 108° East  Level Estimated
03:24PM 50.0264 8.5431 108° East  Level Estimated
03:25PM 50.0264 8.5431 73° East  Level Estimated
03:26PM 50.0264 8.5431 73° East  Level Estimated
03:27PM 50.0264 8.5431 73° East  Level Estimated
03:28PM 50.0264 8.5431 73° East  Level Estimated
03:29PM 50.0264 8.5431 73° East  Level Estimated
03:30PM 50.0264 8.5431 73° East  Level Estimated
03:31PM 50.0264 8.5431 73° East  Level Estimated
03:32PM 50.0264 8.5431 73° East  Level Estimated